Terminal Aerodrome Forecast
Issued by NWS

Home | Current Version | Previous Version | Text Only | Print | Product List | Glossary On
Versions: 1 2 3 4 5 6 7 8 9 10 11 12 13 14 15 16 17 18 19 20 21 22 23 24 25 26 27 28 29 30 31 32 33 34 35
000
FTAK31 PAFA 172332 CCA
TAFAOR
TAF COR
PAOR 172332Z 1800/1824 VRB02KT 4SM -SN BR BKN025 BKN040
     FM181000 30005KT 6SM BR SCT025 BKN040
     FM181600 VRB03KT P6SM FEW025 SCT040=

USA.gov is the U.S. government's official web portal to all federal, state and local government web resources and services.